Dschang Airport


Codes: FKKS/DSC
Name: Dschang Airport
City: Dschang
Country: Cameroon
Elevation: 4593 ft.

Photos at Dschang Airport


   Photos courtesy of SpottingLog. You can add your own sightings and photos by signing up for a free trial today.



No photos found.

Weather at Dschang Airport


Time (UTC)DescriptionTempratureWindCloud coverageVisibilityPressureHumidity
21-Jun-2024 15:00Light Rain22°C2 mph, S100%10000m1013hPa79%
21-Jun-2024 18:00Light Rain19°C2 mph, S100%10000m1014hPa91%
21-Jun-2024 21:00Light Rain17°C0 mph, S95%6062m1016hPa98%
22-Jun-2024 00:00Light Rain17°C0 mph, NW98%4047m1015hPa98%
22-Jun-2024 03:00Light Rain17°C2 mph, NW100%8194m1015hPa98%
22-Jun-2024 06:00Light Rain17°C2 mph, NW99%8150m1016hPa98%
22-Jun-2024 09:00Light Rain19°C2 mph, W100%4866m1017hPa96%
22-Jun-2024 12:00Moderate Rain19°C2 mph, W100%10000m1015hPa94%
22-Jun-2024 15:00Light Rain19°C2 mph, NW96%10000m1014hPa94%
22-Jun-2024 18:00Light Rain17°C0 mph, W76%10000m1015hPa97%
22-Jun-2024 21:00Broken Clouds16°C2 mph, SE80%10000m1016hPa96%
23-Jun-2024 00:00Overcast Clouds16°C0 mph, NE90%10000m1016hPa95%
23-Jun-2024 03:00Overcast Clouds16°C0 mph, NW100%9207m1015hPa98%
23-Jun-2024 06:00Light Rain17°C0 mph, N100%6733m1016hPa96%
23-Jun-2024 09:00Overcast Clouds21°C2 mph, W100%10000m1016hPa80%
23-Jun-2024 12:00Light Rain23°C2 mph, W100%10000m1014hPa72%
23-Jun-2024 15:00Moderate Rain20°C2 mph, NW91%7761m1013hPa91%
23-Jun-2024 18:00Moderate Rain17°C2 mph, N91%10000m1015hPa96%
23-Jun-2024 21:00Light Rain17°C0 mph, SE82%10000m1016hPa98%
24-Jun-2024 00:00Broken Clouds16°C2 mph, N83%10000m1015hPa97%
24-Jun-2024 03:00Light Rain16°C2 mph, NW100%10000m1015hPa98%
24-Jun-2024 06:00Light Rain17°C0 mph, SE99%10000m1016hPa97%
24-Jun-2024 09:00Light Rain20°C2 mph, SW96%10000m1016hPa88%
24-Jun-2024 12:00Light Rain23°C2 mph, W97%10000m1014hPa75%
24-Jun-2024 15:00Moderate Rain22°C2 mph, SW76%10000m1012hPa83%
24-Jun-2024 18:00Moderate Rain17°C0 mph, S78%8184m1014hPa97%
24-Jun-2024 21:00Moderate Rain17°C2 mph, NE64%10000m1015hPa97%
25-Jun-2024 00:00Moderate Rain17°C2 mph, W81%10000m1014hPa95%
25-Jun-2024 03:00Light Rain17°C2 mph, W100%5321m1014hPa99%
25-Jun-2024 06:00Light Rain18°C2 mph, W100%2805m1015hPa99%
25-Jun-2024 09:00Light Rain19°C2 mph, SW100%10000m1015hPa93%
25-Jun-2024 12:00Light Rain22°C2 mph, S99%10000m1013hPa85%
25-Jun-2024 15:00Moderate Rain20°C2 mph, S88%7419m1012hPa92%
25-Jun-2024 18:00Moderate Rain18°C0 mph, SW93%7944m1013hPa96%
25-Jun-2024 21:00Moderate Rain17°C0 mph, N100%4694m1015hPa98%
26-Jun-2024 00:00Moderate Rain17°C2 mph, NW100%3371m1014hPa99%
26-Jun-2024 03:00Light Rain17°C2 mph, W100%2679m1014hPa99%
26-Jun-2024 06:00Light Rain17°C0 mph, NW100%8579m1015hPa98%
26-Jun-2024 09:00Light Rain20°C2 mph, SW100%10000m1016hPa90%
26-Jun-2024 12:00Light Rain22°C2 mph, SW100%7860m1013hPa82%